createdAt,value
2022-10-06T00:01:12.552Z,97.92
2022-10-06T00:04:14.522Z,98.60
2022-10-06T00:07:17.509Z,97.62
2022-10-06T00:10:19.503Z,97.89
2022-10-06T00:13:21.525Z,98.61
2022-10-06T00:16:23.902Z,98.52
2022-10-06T00:19:25.909Z,99.62
2022-10-06T00:22:37.151Z,99.51
2022-10-06T00:25:39.141Z,99.99
2022-10-06T00:28:41.334Z,99.21
2022-10-06T00:31:43.906Z,99.45
2022-10-06T00:34:45.865Z,99.67
2022-10-06T00:37:48.922Z,100.00
2022-10-06T00:40:51.411Z,99.97
2022-10-06T00:43:57.097Z,100.00
2022-10-06T00:46:59.075Z,100.00
2022-10-06T00:50:03.094Z,99.98
2022-10-06T00:53:06.251Z,99.95
2022-10-06T00:56:08.599Z,99.82
2022-10-06T00:59:17.133Z,99.66
2022-10-06T01:02:37.762Z,99.60
2022-10-06T01:05:46.833Z,100.00
2022-10-06T01:08:49.951Z,99.87
2022-10-06T01:11:54.728Z,99.53
2022-10-06T01:14:57.535Z,99.77
2022-10-06T01:18:13.635Z,99.32
2022-10-06T01:21:30.177Z,99.92
2022-10-06T01:24:32.746Z,99.41
2022-10-06T01:27:37.976Z,99.66
2022-10-06T01:30:51.141Z,99.58
2022-10-06T01:33:55.250Z,99.24
2022-10-06T01:36:58.049Z,99.46
2022-10-06T01:40:01.590Z,99.53
2022-10-06T01:43:04.000Z,99.32
2022-10-06T01:46:06.628Z,99.23
2022-10-06T01:49:08.667Z,99.88
2022-10-06T01:52:10.661Z,99.61
2022-10-06T01:55:12.880Z,99.43
2022-10-06T01:58:15.420Z,99.21
2022-10-06T02:01:17.617Z,99.51
2022-10-06T02:04:19.902Z,99.46
2022-10-06T02:07:22.741Z,99.26
2022-10-06T02:10:24.967Z,99.45
2022-10-06T02:13:28.249Z,99.65
2022-10-06T02:16:30.578Z,99.46
2022-10-06T02:19:37.181Z,99.72
2022-10-06T02:22:40.913Z,99.61
2022-10-06T02:25:43.155Z,99.58
2022-10-06T02:28:47.465Z,99.28
2022-10-06T02:31:55.284Z,99.30
2022-10-06T02:34:57.511Z,100.00
2022-10-06T02:37:59.687Z,99.50
2022-10-06T02:41:02.293Z,99.75
2022-10-06T02:44:05.424Z,99.52
2022-10-06T02:47:14.555Z,99.84
2022-10-06T02:50:16.805Z,99.95
2022-10-06T02:53:20.060Z,99.84
2022-10-06T02:56:25.372Z,99.92
2022-10-06T02:59:27.961Z,100.00
2022-10-06T03:02:31.575Z,100.00
2022-10-06T03:05:33.707Z,100.00
2022-10-06T03:08:35.921Z,100.00
2022-10-06T03:11:40.832Z,100.00
2022-10-06T03:14:44.599Z,100.00
2022-10-06T03:17:50.108Z,100.00
2022-10-06T03:20:54.424Z,100.00
2022-10-06T03:23:57.589Z,100.00
2022-10-06T03:27:01.025Z,100.00
2022-10-06T03:30:05.085Z,100.00
2022-10-06T03:33:09.409Z,100.00
2022-10-06T03:36:17.558Z,100.00
2022-10-06T03:39:19.799Z,100.00
2022-10-06T03:42:21.927Z,100.00
2022-10-06T03:45:23.959Z,100.00
2022-10-06T03:48:27.163Z,100.00
2022-10-06T03:51:37.669Z,100.00
2022-10-06T03:54:40.715Z,100.00
2022-10-06T03:57:42.838Z,100.00
2022-10-06T04:00:46.546Z,100.00
2022-10-06T04:03:48.561Z,100.00
2022-10-06T04:06:51.046Z,100.00
2022-10-06T04:09:55.386Z,100.00
2022-10-06T04:12:57.894Z,100.00
2022-10-06T04:16:09.206Z,100.00
2022-10-06T04:19:13.374Z,100.00
2022-10-06T04:22:19.596Z,100.00
2022-10-06T04:25:22.121Z,100.00
2022-10-06T04:28:24.199Z,100.00
2022-10-06T04:31:29.865Z,100.00
2022-10-06T04:34:32.046Z,100.00
2022-10-06T04:37:34.078Z,100.00
2022-10-06T04:40:36.997Z,100.00
2022-10-06T04:43:39.242Z,100.00
2022-10-06T04:46:43.877Z,100.00
2022-10-06T04:49:47.476Z,100.00
2022-10-06T04:52:49.972Z,100.00
2022-10-06T04:56:01.215Z,100.00
2022-10-06T04:59:04.999Z,100.00
2022-10-06T05:02:11.213Z,100.00
2022-10-06T05:05:13.782Z,100.00
2022-10-06T05:08:16.978Z,100.00
2022-10-06T05:11:23.653Z,100.00
2022-10-06T05:14:28.893Z,100.00
2022-10-06T05:17:31.625Z,100.00
2022-10-06T05:20:34.168Z,100.00
2022-10-06T05:23:40.128Z,100.00
2022-10-06T05:26:42.138Z,100.00
2022-10-06T05:29:47.945Z,100.00
2022-10-06T05:32:50.807Z,100.00
2022-10-06T05:35:58.889Z,100.00
2022-10-06T05:39:02.223Z,100.00
2022-10-06T05:42:10.820Z,100.00
2022-10-06T05:45:13.303Z,100.00
2022-10-06T05:48:15.968Z,100.00
2022-10-06T05:51:19.758Z,100.00
2022-10-06T05:54:22.955Z,100.00
2022-10-06T05:57:25.104Z,100.00
2022-10-06T06:00:27.121Z,100.00
2022-10-06T06:03:29.795Z,100.00
2022-10-06T06:06:46.303Z,100.00
2022-10-06T06:10:07.005Z,100.00
2022-10-06T06:13:08.988Z,100.00
2022-10-06T06:16:18.867Z,100.00
2022-10-06T06:19:21.069Z,100.00
2022-10-06T06:22:23.210Z,100.00
2022-10-06T06:25:26.329Z,100.00
2022-10-06T06:28:30.605Z,98.13
2022-10-06T06:31:37.365Z,94.30
2022-10-06T06:34:41.081Z,88.03
2022-10-06T06:37:46.222Z,88.78
2022-10-06T06:40:48.434Z,88.49
2022-10-06T06:43:53.004Z,90.15
2022-10-06T06:47:06.590Z,91.14
2022-10-06T06:50:10.976Z,90.56
2022-10-06T06:53:16.197Z,87.68
2022-10-06T06:56:24.307Z,83.34
2022-10-06T06:59:26.992Z,80.28
2022-10-06T07:02:31.664Z,100.00
2022-10-06T07:05:34.913Z,100.00
2022-10-06T07:08:39.790Z,100.00
2022-10-06T07:11:42.981Z,100.00
2022-10-06T07:15:10.063Z,100.00
2022-10-06T07:18:37.146Z,100.00
2022-10-06T07:21:58.741Z,100.00
2022-10-06T07:25:07.769Z,100.00
2022-10-06T07:28:12.863Z,100.00
2022-10-06T07:31:18.754Z,100.00
2022-10-06T07:34:22.846Z,100.00
2022-10-06T07:37:25.791Z,100.00
2022-10-06T07:40:28.142Z,100.00
2022-10-06T07:43:30.414Z,100.00
2022-10-06T07:46:36.098Z,100.00
2022-10-06T07:49:43.195Z,100.00
2022-10-06T07:52:48.069Z,100.00
2022-10-06T07:55:50.107Z,100.00
2022-10-06T07:58:58.795Z,100.00
2022-10-06T08:02:00.812Z,100.00
2022-10-06T08:05:02.946Z,100.00
2022-10-06T08:08:05.659Z,100.00
2022-10-06T08:11:08.958Z,100.00
2022-10-06T08:14:10.852Z,100.00
2022-10-06T08:17:12.791Z,100.00
2022-10-06T08:20:15.125Z,100.00
2022-10-06T08:23:17.146Z,100.00
2022-10-06T08:26:20.797Z,100.00
2022-10-06T08:29:22.870Z,100.00
2022-10-06T08:32:25.599Z,100.00
2022-10-06T08:35:27.796Z,100.00
2022-10-06T08:38:29.678Z,100.00
2022-10-06T08:41:44.926Z,100.00
2022-10-06T08:44:51.119Z,100.00
2022-10-06T08:48:04.117Z,100.00
2022-10-06T08:51:19.739Z,100.00
2022-10-06T08:54:35.125Z,100.00
2022-10-06T08:57:56.314Z,100.00
2022-10-06T09:01:14.418Z,100.00
2022-10-06T09:04:34.709Z,100.00
2022-10-06T09:07:42.977Z,100.00
2022-10-06T09:11:11.283Z,100.00
2022-10-06T09:14:18.056Z,100.00
2022-10-06T09:17:39.053Z,100.00
2022-10-06T09:20:52.397Z,100.00
2022-10-06T09:23:57.178Z,100.00
2022-10-06T09:26:59.317Z,100.00
2022-10-06T09:30:02.156Z,100.00
2022-10-06T09:33:06.935Z,100.00
2022-10-06T09:36:11.522Z,100.00
2022-10-06T09:39:26.497Z,100.00
2022-10-06T09:42:35.919Z,100.00
2022-10-06T09:45:38.101Z,100.00
2022-10-06T09:48:39.981Z,100.00
2022-10-06T09:51:41.933Z,100.00
2022-10-06T09:54:45.028Z,100.00
2022-10-06T09:57:52.658Z,100.00
2022-10-06T10:00:57.942Z,100.00
2022-10-06T10:04:20.107Z,100.00
2022-10-06T10:07:27.381Z,100.00
2022-10-06T10:10:30.085Z,100.00
2022-10-06T10:13:43.066Z,100.00
2022-10-06T10:16:49.668Z,100.00
2022-10-06T10:19:55.788Z,100.00
2022-10-06T10:23:05.442Z,100.00
2022-10-06T10:26:30.242Z,100.00
2022-10-06T10:29:54.796Z,100.00
2022-10-06T10:33:12.302Z,100.00
2022-10-06T10:36:18.042Z,100.00
2022-10-06T10:39:26.982Z,100.00
2022-10-06T10:42:37.472Z,100.00
2022-10-06T10:45:56.809Z,100.00
2022-10-06T10:49:04.244Z,100.00
2022-10-06T10:52:24.301Z,100.00
2022-10-06T10:55:42.156Z,100.00
2022-10-06T10:58:45.761Z,100.00
2022-10-06T11:01:58.065Z,100.00
2022-10-06T11:05:29.010Z,100.00
2022-10-06T11:08:55.861Z,100.00
2022-10-06T11:12:16.845Z,100.00
2022-10-06T11:15:45.447Z,100.00
2022-10-06T11:19:05.903Z,100.00
2022-10-06T11:22:26.644Z,100.00
2022-10-06T11:25:53.392Z,100.00
2022-10-06T11:29:13.998Z,100.00
2022-10-06T11:32:31.000Z,100.00
2022-10-06T11:35:36.450Z,100.00
2022-10-06T11:38:45.357Z,100.00
2022-10-06T11:42:11.427Z,100.00
2022-10-06T11:45:16.398Z,100.00
2022-10-06T11:48:24.212Z,100.00
2022-10-06T11:51:26.661Z,100.00
2022-10-06T11:54:51.925Z,100.00
2022-10-06T11:58:40.714Z,100.00
2022-10-06T12:01:33.718Z,100.00
2022-10-06T12:04:35.991Z,100.00
2022-10-06T12:07:56.203Z,100.00
2022-10-06T12:10:58.170Z,100.00
2022-10-06T12:15:06.393Z,100.00
2022-10-06T12:17:36.692Z,100.00
2022-10-06T12:20:59.866Z,100.00
2022-10-06T12:24:17.201Z,100.00
2022-10-06T12:27:31.162Z,100.00
2022-10-06T12:30:43.548Z,100.00
2022-10-06T12:33:46.371Z,100.00
2022-10-06T12:36:48.559Z,100.00
2022-10-06T12:39:50.601Z,100.00
2022-10-06T12:42:54.342Z,100.00
2022-10-06T12:45:56.533Z,100.00
2022-10-06T12:49:27.218Z,100.00
2022-10-06T12:52:34.929Z,100.00
2022-10-06T12:55:53.434Z,100.00
2022-10-06T12:58:56.382Z,100.00
2022-10-06T13:02:08.171Z,100.00
2022-10-06T13:05:12.422Z,100.00
2022-10-06T13:08:28.142Z,100.00
2022-10-06T13:11:30.125Z,100.00
2022-10-06T13:14:32.019Z,100.00
2022-10-06T13:17:33.988Z,100.00
2022-10-06T13:20:55.695Z,100.00
2022-10-06T13:23:57.736Z,100.00
2022-10-06T13:26:59.646Z,100.00
2022-10-06T13:30:22.389Z,100.00
2022-10-06T13:33:27.738Z,100.00
2022-10-06T13:36:32.996Z,100.00
2022-10-06T13:39:34.925Z,100.00
2022-10-06T13:42:37.640Z,100.00
2022-10-06T13:45:42.847Z,100.00
2022-10-06T13:48:55.774Z,100.00
2022-10-06T13:52:01.998Z,100.00
2022-10-06T13:55:14.097Z,100.00
2022-10-06T13:58:21.001Z,100.00
2022-10-06T14:01:31.389Z,100.00
2022-10-06T14:04:34.779Z,100.00
2022-10-06T14:07:44.200Z,100.00
2022-10-06T14:10:59.783Z,100.00
2022-10-06T14:18:36.057Z,100.00
2022-10-06T14:21:44.997Z,100.00
2022-10-06T14:24:53.027Z,100.00
2022-10-06T14:28:19.833Z,100.00
2022-10-06T14:31:23.629Z,100.00
2022-10-06T14:34:25.611Z,100.00
2022-10-06T14:37:27.518Z,100.00
2022-10-06T14:40:29.615Z,100.00
2022-10-06T14:43:31.617Z,100.00
2022-10-06T14:46:49.162Z,100.00
2022-10-06T14:49:51.500Z,100.00
2022-10-06T14:52:53.452Z,100.00
2022-10-06T14:56:01.614Z,100.00
2022-10-06T14:59:06.679Z,100.00
2022-10-06T15:10:40.404Z,100.00
2022-10-06T15:13:42.357Z,100.00
2022-10-06T15:16:44.933Z,100.00
2022-10-06T15:23:24.700Z,100.00
2022-10-06T15:26:46.187Z,100.00
2022-10-06T15:29:48.098Z,100.00
2022-10-06T15:32:51.213Z,100.00
2022-10-06T15:36:17.613Z,100.00
2022-10-06T15:40:27.977Z,100.00
2022-10-06T15:43:51.773Z,100.00
2022-10-06T15:46:57.058Z,100.00
2022-10-06T15:49:58.979Z,100.00
2022-10-06T15:53:00.910Z,100.00
2022-10-06T15:56:02.778Z,100.00
2022-10-06T15:59:06.401Z,100.00
2022-10-06T16:02:15.837Z,100.00
2022-10-06T16:05:48.692Z,100.00
2022-10-06T16:08:50.532Z,100.00
2022-10-06T16:11:53.864Z,100.00
2022-10-06T16:14:55.764Z,100.00
2022-10-06T16:17:57.788Z,100.00
2022-10-06T16:20:59.760Z,100.00
2022-10-06T16:24:02.148Z,100.00
2022-10-06T16:27:04.718Z,100.00
2022-10-06T16:30:07.555Z,100.00
2022-10-06T16:33:09.596Z,100.00
2022-10-06T16:36:13.831Z,100.00
2022-10-06T16:39:21.205Z,100.00
2022-10-06T16:42:24.419Z,100.00
2022-10-06T16:45:26.353Z,100.00
2022-10-06T16:48:33.773Z,100.00
2022-10-06T16:51:37.735Z,100.00
2022-10-06T16:54:39.648Z,100.00
2022-10-06T16:57:41.541Z,100.00
2022-10-06T17:00:43.484Z,100.00
2022-10-06T17:03:45.770Z,100.00
2022-10-06T17:06:54.009Z,100.00
2022-10-06T17:10:19.091Z,100.00
2022-10-06T17:13:18.048Z,100.00
2022-10-06T17:16:23.003Z,100.00
2022-10-06T17:19:28.810Z,100.00
2022-10-06T17:22:30.734Z,100.00
2022-10-06T17:25:33.966Z,100.00
2022-10-06T17:28:36.851Z,100.00
2022-10-06T17:31:41.302Z,100.00
2022-10-06T17:34:43.239Z,100.00
2022-10-06T17:37:45.243Z,100.00
2022-10-06T17:40:47.262Z,100.00
2022-10-06T17:43:50.636Z,100.00
2022-10-06T17:46:58.051Z,100.00
2022-10-06T17:50:00.721Z,100.00
2022-10-06T17:53:03.075Z,100.00
2022-10-06T17:56:07.172Z,100.00
2022-10-06T17:59:16.558Z,100.00
2022-10-06T18:02:18.538Z,100.00
2022-10-06T18:05:20.749Z,100.00
2022-10-06T18:08:25.779Z,100.00
2022-10-06T18:11:33.423Z,100.00
2022-10-06T18:14:35.604Z,100.00
2022-10-06T18:17:37.729Z,100.00
2022-10-06T18:20:41.816Z,100.00
2022-10-06T18:23:44.394Z,100.00
2022-10-06T18:26:49.906Z,100.00
2022-10-06T18:29:52.136Z,100.00
2022-10-06T18:36:19.678Z,100.00
2022-10-06T18:39:21.915Z,100.00
2022-10-06T18:42:25.267Z,100.00
2022-10-06T18:45:46.601Z,100.00
2022-10-06T18:49:01.404Z,100.00
2022-10-06T18:52:04.853Z,100.00
2022-10-06T18:55:07.319Z,100.00
2022-10-06T18:58:12.071Z,100.00
2022-10-06T19:01:15.003Z,100.00
2022-10-06T19:04:20.634Z,100.00
2022-10-06T19:07:23.359Z,100.00
2022-10-06T19:10:26.753Z,100.00
2022-10-06T19:13:30.109Z,100.00
2022-10-06T19:16:32.357Z,100.00
2022-10-06T19:19:34.989Z,100.00
2022-10-06T19:22:37.883Z,100.00
2022-10-06T19:25:40.662Z,100.00
2022-10-06T19:28:42.962Z,100.00
2022-10-06T19:31:48.248Z,100.00
2022-10-06T19:34:50.472Z,100.00
2022-10-06T19:37:52.905Z,100.00
2022-10-06T19:41:15.664Z,100.00
2022-10-06T19:44:18.575Z,100.00
2022-10-06T19:47:20.949Z,100.00
2022-10-06T19:50:23.410Z,100.00
2022-10-06T19:53:25.929Z,100.00
2022-10-06T19:56:30.255Z,100.00
2022-10-06T19:59:32.673Z,100.00
2022-10-06T20:02:38.549Z,100.00
2022-10-06T20:05:43.459Z,100.00
2022-10-06T20:08:45.344Z,100.00
2022-10-06T20:11:49.223Z,100.00
2022-10-06T20:14:51.233Z,100.00
2022-10-06T20:17:53.237Z,100.00
2022-10-06T20:20:59.402Z,100.00
2022-10-06T20:24:08.634Z,100.00
2022-10-06T20:27:10.547Z,100.00
2022-10-06T20:30:12.724Z,100.00
2022-10-06T20:33:14.573Z,100.00
2022-10-06T20:36:18.226Z,100.00
2022-10-06T20:39:40.643Z,100.00
2022-10-06T20:42:45.047Z,100.00
2022-10-06T20:45:49.868Z,100.00
2022-10-06T20:48:52.694Z,100.00
2022-10-06T20:51:55.140Z,100.00
2022-10-06T20:54:57.033Z,100.00
2022-10-06T20:57:58.950Z,100.00
2022-10-06T21:01:10.847Z,100.00
2022-10-06T21:04:13.776Z,100.00
2022-10-06T21:07:15.812Z,100.00
2022-10-06T21:10:18.251Z,100.00
2022-10-06T21:13:20.685Z,100.00
2022-10-06T21:16:26.114Z,100.00
2022-10-06T21:19:30.249Z,100.00
2022-10-06T21:22:32.461Z,100.00
2022-10-06T21:25:38.511Z,100.00
2022-10-06T21:28:41.332Z,100.00
2022-10-06T21:31:45.005Z,100.00
2022-10-06T21:34:47.156Z,100.00
2022-10-06T21:37:49.362Z,100.00
2022-10-06T21:40:51.333Z,100.00
2022-10-06T21:43:55.406Z,100.00
2022-10-06T21:46:57.623Z,100.00
2022-10-06T21:49:59.930Z,100.00
2022-10-06T21:53:02.002Z,100.00
2022-10-06T21:56:04.009Z,100.00
2022-10-06T21:59:06.312Z,100.00
2022-10-06T22:02:08.303Z,100.00
2022-10-06T22:05:10.325Z,100.00
2022-10-06T22:08:13.528Z,100.00
2022-10-06T22:11:19.133Z,100.00
2022-10-06T22:14:21.215Z,100.00
2022-10-06T22:17:23.883Z,100.00
2022-10-06T22:20:25.935Z,100.00
2022-10-06T22:23:28.397Z,100.00
2022-10-06T22:26:32.776Z,100.00
2022-10-06T22:29:34.752Z,100.00
2022-10-06T22:32:37.036Z,100.00
2022-10-06T22:35:39.095Z,100.00
2022-10-06T22:38:41.959Z,100.00
2022-10-06T22:41:44.571Z,100.00
2022-10-06T22:44:46.647Z,100.00
2022-10-06T22:47:48.624Z,100.00
2022-10-06T22:50:51.119Z,100.00
2022-10-06T22:53:58.714Z,100.00
2022-10-06T22:57:01.012Z,100.00
2022-10-06T23:00:03.252Z,100.00
2022-10-06T23:03:05.938Z,100.00
2022-10-06T23:06:10.677Z,100.00
2022-10-06T23:09:12.851Z,100.00
2022-10-06T23:12:14.882Z,100.00
2022-10-06T23:15:17.298Z,100.00
2022-10-06T23:18:19.341Z,100.00
2022-10-06T23:21:24.594Z,100.00
2022-10-06T23:24:26.616Z,100.00
2022-10-06T23:27:28.713Z,100.00
2022-10-06T23:30:30.701Z,100.00
2022-10-06T23:33:33.671Z,100.00
2022-10-06T23:36:35.687Z,100.00
2022-10-06T23:39:37.729Z,100.00
2022-10-06T23:42:39.783Z,100.00
2022-10-06T23:45:41.935Z,100.00
2022-10-06T23:48:44.106Z,100.00
2022-10-06T23:51:46.055Z,100.00
2022-10-06T23:54:48.186Z,100.00
2022-10-06T23:57:50.509Z,100.00
